Terminal Aerodrome Forecast
Issued by NWS

Home | Current Version | Previous Version | Text Only | Print | Product List | Glossary On
Versions: 1 2 3 4 5 6 7 8 9 10 11 12 13
000
FTUS44 KLZK 180500
TAFPBF
TAF
KPBF 180540Z 1806/1906 VRB02KT P6SM VCSH BKN100 BKN250
     FM181000 02004KT P6SM BKN100
     FM181500 03007KT P6SM SCT100
     FM181800 05009KT P6SM SCT050 SCT100
     FM190000 06003KT P6SM SCT250=

USA.gov is the U.S. government's official web portal to all federal, state and local government web resources and services.